Observations for CULDROSE NAVY, United Kingdom (EGDR)

EGDR 260450Z AUTO 01007KT 8000 // FEW006/// BKN160/// 15/15 Q1018   
EGDR 260350Z AUTO 35005KT 9999 // OVC005/// 16/15 Q1019 
EGDR 260250Z AUTO 34007KT 9999 // BKN005/// SCT130/// BKN170/// 16/15 Q1019 
EGDR 260150Z AUTO 33005KT 9999 // BKN024/// BKN180/// 16/15 Q1019   
EGDR 260050Z AUTO 36006KT 9999 // BKN025/// BKN190/// 16/15 Q1019   
EGDR 252350Z AUTO 01005KT 9000 // FEW028/// SCT190/// 15/14 Q1019   
EGDR 252250Z AUTO 36005KT 9999 // FEW030/// 16/14 Q1020 
EGDR 252150Z AUTO 01008KT 9999 // FEW008/// SCT030/// 16/15 Q1020   
EGDR 252050Z AUTO 35008KT 9999 // BKN008/// 17/15 Q1020 
EGDR 251950Z AUTO 35008KT 9999 // FEW031/// 17/15 Q1020 
EGDR 251850Z AUTO 36009KT 9999 // BKN010/// SCT025/// 18/16 Q1019   
EGDR 251750Z AUTO 00000KT 9999 // FEW009/// 19/16 Q1019 
EGDR 251650Z AUTO 27006KT 9999 // BKN006/// 19/17 Q1019 
EGDR 251550Z AUTO 23007KT 9999 // BKN005/// BKN023/// 19/17 Q1019   
EGDR 251450Z AUTO 23008KT 9999 // BKN005/// BKN023/// 20/17 Q1019   
EGDR 251350Z AUTO 23007KT 9999 // SCT026/// 20/17 Q1019 
EGDR 251317Z 22006KT 9999 FEW015 SCT028 20/17 Q1019 TEMPO SCT022 RMK BLU TEMPO WHT  
EGDR 251250Z 23007KT 9999 FEW015 SCT028 20/16 Q1019 TEMPO SCT022 RMK BLU TEMPO WHT  
EGDR 251226Z 23006KT 9999 FEW015 SCT028 20/16 Q1019 TEMPO SCT022 RMK BLU TEMPO WHT  
EGDR 251150Z 22007KT 9999 FEW015 SCT028 20/16 Q1018 TEMPO SCT022 RMK BLU TEMPO WHT  
EGDR 251124Z 23006KT 9999 FEW015 SCT028 20/17 Q1018 TEMPO SCT022 RMK BLU TEMPO WHT  
EGDR 251050Z 23006KT 9999 FEW012 SCT028 20/16 Q1018 
EGDR 250950Z AUTO 25003KT 9999 // SCT029/// 20/16 Q1018 
EGDR 250850Z AUTO 23006KT 9999 // BKN014/// 19/16 Q1018 
EGDR 250750Z AUTO 29003KT 9999 // BKN018/// 17/16 Q1018 
EGDR 250650Z AUTO 27001KT 6000 // FEW018/// 16/15 Q1017 
EGDR 250550Z AUTO 25004KT 5000 // FEW007/// 15/14 Q1017 
EGDR 250450Z AUTO 27005KT 7000 // FEW008/// 15/14 Q1016